sensor_id;sensor_type;location;lat;lon;timestamp;temperature;humidity
23591;DHT22;11973;52.098;7.582;2023-06-10T05:15:24;18.50;66.10
23591;DHT22;11973;52.098;7.582;2023-06-10T05:17:49;18.50;65.90
23591;DHT22;11973;52.098;7.582;2023-06-10T05:20:16;18.60;66.10
23591;DHT22;11973;52.098;7.582;2023-06-10T05:22:41;18.60;66.10
23591;DHT22;11973;52.098;7.582;2023-06-10T05:25:07;18.60;66.10
23591;DHT22;11973;52.098;7.582;2023-06-10T05:27:33;18.70;66.10
23591;DHT22;11973;52.098;7.582;2023-06-10T05:29:59;18.70;66.10
23591;DHT22;11973;52.098;7.582;2023-06-10T05:32:25;18.70;66.00
23591;DHT22;11973;52.098;7.582;2023-06-10T05:34:50;18.80;66.00
23591;DHT22;11973;52.098;7.582;2023-06-10T05:37:16;18.80;66.00
23591;DHT22;11973;52.098;7.582;2023-06-10T05:39:42;18.90;66.00
23591;DHT22;11973;52.098;7.582;2023-06-10T05:42:08;18.90;65.90
23591;DHT22;11973;52.098;7.582;2023-06-10T05:44:37;19.00;66.00
23591;DHT22;11973;52.098;7.582;2023-06-10T05:47:03;19.00;65.90
23591;DHT22;11973;52.098;7.582;2023-06-10T05:49:29;19.00;65.80
23591;DHT22;11973;52.098;7.582;2023-06-10T05:51:54;19.00;65.70
23591;DHT22;11973;52.098;7.582;2023-06-10T05:54:22;19.10;65.70
23591;DHT22;11973;52.098;7.582;2023-06-10T05:56:47;19.10;65.60
23591;DHT22;11973;52.098;7.582;2023-06-10T05:59:13;19.20;65.70
23591;DHT22;11973;52.098;7.582;2023-06-10T06:01:39;19.30;65.70
23591;DHT22;11973;52.098;7.582;2023-06-10T06:04:05;19.30;65.70
23591;DHT22;11973;52.098;7.582;2023-06-10T06:06:31;19.30;66.30
23591;DHT22;11973;52.098;7.582;2023-06-10T06:08:56;19.40;65.60
23591;DHT22;11973;52.098;7.582;2023-06-10T06:11:22;19.50;65.50
23591;DHT22;11973;52.098;7.582;2023-06-10T06:13:48;19.50;65.40
23591;DHT22;11973;52.098;7.582;2023-06-10T06:16:14;19.60;65.40
23591;DHT22;11973;52.098;7.582;2023-06-10T06:18:40;19.60;65.20
23591;DHT22;11973;52.098;7.582;2023-06-10T06:21:06;19.70;65.10
23591;DHT22;11973;52.098;7.582;2023-06-10T06:23:32;19.80;65.10
23591;DHT22;11973;52.098;7.582;2023-06-10T06:25:57;19.80;64.90
23591;DHT22;11973;52.098;7.582;2023-06-10T06:28:23;19.90;64.80
23591;DHT22;11973;52.098;7.582;2023-06-10T06:30:55;19.90;64.70
23591;DHT22;11973;52.098;7.582;2023-06-10T06:33:20;20.00;64.50
23591;DHT22;11973;52.098;7.582;2023-06-10T06:35:46;20.00;64.50
23591;DHT22;11973;52.098;7.582;2023-06-10T06:38:12;20.10;64.50
23591;DHT22;11973;52.098;7.582;2023-06-10T06:40:38;20.10;64.30
23591;DHT22;11973;52.098;7.582;2023-06-10T06:43:05;20.20;64.30
23591;DHT22;11973;52.098;7.582;2023-06-10T06:46:09;20.20;64.10
23591;DHT22;11973;52.098;7.582;2023-06-10T06:48:35;20.30;64.00
23591;DHT22;11973;52.098;7.582;2023-06-10T06:51:01;20.30;63.90
23591;DHT22;11973;52.098;7.582;2023-06-10T06:53:26;20.30;64.50
23591;DHT22;11973;52.098;7.582;2023-06-10T06:55:52;20.40;63.70
23591;DHT22;11973;52.098;7.582;2023-06-10T06:58:18;20.40;63.70
23591;DHT22;11973;52.098;7.582;2023-06-10T07:00:43;20.50;63.50
23591;DHT22;11973;52.098;7.582;2023-06-10T07:03:09;20.50;63.50
23591;DHT22;11973;52.098;7.582;2023-06-10T07:05:35;20.50;63.50
23591;DHT22;11973;52.098;7.582;2023-06-10T07:08:01;20.60;63.50
23591;DHT22;11973;52.098;7.582;2023-06-10T07:10:28;20.60;63.40
23591;DHT22;11973;52.098;7.582;2023-06-10T07:12:54;20.70;63.30
23591;DHT22;11973;52.098;7.582;2023-06-10T07:15:20;20.70;63.10
23591;DHT22;11973;52.098;7.582;2023-06-10T07:17:46;20.80;63.10
23591;DHT22;11973;52.098;7.582;2023-06-10T07:20:12;20.90;63.10
23591;DHT22;11973;52.098;7.582;2023-06-10T07:22:38;20.90;62.90
23591;DHT22;11973;52.098;7.582;2023-06-10T07:25:07;21.00;62.90
23591;DHT22;11973;52.098;7.582;2023-06-10T07:27:33;21.00;62.80
23591;DHT22;11973;52.098;7.582;2023-06-10T07:29:58;21.10;62.70
23591;DHT22;11973;52.098;7.582;2023-06-10T07:32:26;21.10;62.50
23591;DHT22;11973;52.098;7.582;2023-06-10T07:34:52;21.20;62.50
23591;DHT22;11973;52.098;7.582;2023-06-10T07:37:18;21.20;62.30
23591;DHT22;11973;52.098;7.582;2023-06-10T07:39:45;21.30;63.00
23591;DHT22;11973;52.098;7.582;2023-06-10T07:42:10;21.30;62.00
23591;DHT22;11973;52.098;7.582;2023-06-10T07:44:36;21.40;62.00
23591;DHT22;11973;52.098;7.582;2023-06-10T07:47:02;21.40;61.90
23591;DHT22;11973;52.098;7.582;2023-06-10T07:49:28;21.50;62.70
23591;DHT22;11973;52.098;7.582;2023-06-10T07:51:54;21.50;61.70
23591;DHT22;11973;52.098;7.582;2023-06-10T07:54:21;21.60;61.60
23591;DHT22;11973;52.098;7.582;2023-06-10T07:56:47;21.70;61.60
23591;DHT22;11973;52.098;7.582;2023-06-10T07:59:14;21.70;61.50
23591;DHT22;11973;52.098;7.582;2023-06-10T08:01:39;21.80;61.30
23591;DHT22;11973;52.098;7.582;2023-06-10T08:04:06;21.80;61.20
23591;DHT22;11973;52.098;7.582;2023-06-10T08:06:32;21.80;61.00
23591;DHT22;11973;52.098;7.582;2023-06-10T08:08:57;21.90;61.00
23591;DHT22;11973;52.098;7.582;2023-06-10T08:11:23;22.00;60.90
23591;DHT22;11973;52.098;7.582;2023-06-10T08:13:49;22.10;60.90
23591;DHT22;11973;52.098;7.582;2023-06-10T08:16:16;22.10;60.60
23591;DHT22;11973;52.098;7.582;2023-06-10T08:18:42;22.20;60.60
23591;DHT22;11973;52.098;7.582;2023-06-10T08:21:07;22.20;60.40
23591;DHT22;11973;52.098;7.582;2023-06-10T08:23:33;22.30;60.30
23591;DHT22;11973;52.098;7.582;2023-06-10T08:25:59;22.40;60.30
23591;DHT22;11973;52.098;7.582;2023-06-10T08:28:25;22.40;60.00
23591;DHT22;11973;52.098;7.582;2023-06-10T08:30:50;22.50;60.00
23591;DHT22;11973;52.098;7.582;2023-06-10T08:33:16;22.30;59.60
23591;DHT22;11973;52.098;7.582;2023-06-10T08:35:42;22.60;59.70
23591;DHT22;11973;52.098;7.582;2023-06-10T08:38:07;22.70;59.60
23591;DHT22;11973;52.098;7.582;2023-06-10T08:40:33;22.70;59.40
23591;DHT22;11973;52.098;7.582;2023-06-10T08:43:36;22.80;59.40
23591;DHT22;11973;52.098;7.582;2023-06-10T08:46:03;22.80;59.10
23591;DHT22;11973;52.098;7.582;2023-06-10T08:48:29;22.90;59.10
23591;DHT22;11973;52.098;7.582;2023-06-10T08:50:58;23.00;59.00
23591;DHT22;11973;52.098;7.582;2023-06-10T08:53:26;23.10;59.10
23591;DHT22;11973;52.098;7.582;2023-06-10T08:55:53;23.10;58.80
23591;DHT22;11973;52.098;7.582;2023-06-10T08:58:25;23.20;58.60
23591;DHT22;11973;52.098;7.582;2023-06-10T09:00:51;23.30;58.40
23591;DHT22;11973;52.098;7.582;2023-06-10T09:03:18;23.30;58.20
23591;DHT22;11973;52.098;7.582;2023-06-10T09:05:44;23.40;58.10
23591;DHT22;11973;52.098;7.582;2023-06-10T09:08:10;23.50;57.90
23591;DHT22;11973;52.098;7.582;2023-06-10T09:10:36;23.50;57.80
23591;DHT22;11973;52.098;7.582;2023-06-10T09:13:02;23.60;57.70
23591;DHT22;11973;52.098;7.582;2023-06-10T09:15:27;23.60;57.60
23591;DHT22;11973;52.098;7.582;2023-06-10T09:17:53;23.70;58.10
23591;DHT22;11973;52.098;7.582;2023-06-10T09:20:19;23.80;57.60
23591;DHT22;11973;52.098;7.582;2023-06-10T09:22:45;23.90;58.10
23591;DHT22;11973;52.098;7.582;2023-06-10T09:25:12;23.90;57.30
23591;DHT22;11973;52.098;7.582;2023-06-10T09:27:49;24.00;57.20
23591;DHT22;11973;52.098;7.582;2023-06-10T09:32:53;24.20;57.60
23591;DHT22;11973;52.098;7.582;2023-06-10T09:35:25;24.20;56.80
23591;DHT22;11973;52.098;7.582;2023-06-10T09:37:56;24.30;56.70
23591;DHT22;11973;52.098;7.582;2023-06-10T09:40:26;24.30;56.50
23591;DHT22;11973;52.098;7.582;2023-06-10T09:42:59;24.40;57.10
23591;DHT22;11973;52.098;7.582;2023-06-10T09:45:32;24.50;56.40
23591;DHT22;11973;52.098;7.582;2023-06-10T09:47:58;24.50;56.00
23591;DHT22;11973;52.098;7.582;2023-06-10T09:50:24;24.60;56.00
23591;DHT22;11973;52.098;7.582;2023-06-10T09:52:51;24.60;55.80
23591;DHT22;11973;52.098;7.582;2023-06-10T09:55:17;24.70;55.80
23591;DHT22;11973;52.098;7.582;2023-06-10T09:57:43;24.80;55.70
23591;DHT22;11973;52.098;7.582;2023-06-10T10:00:13;24.80;55.60
23591;DHT22;11973;52.098;7.582;2023-06-10T10:02:51;24.90;55.70
23591;DHT22;11973;52.098;7.582;2023-06-10T10:05:18;25.00;55.60
23591;DHT22;11973;52.098;7.582;2023-06-10T10:07:45;25.10;55.50
23591;DHT22;11973;52.098;7.582;2023-06-10T10:10:12;25.10;55.90
23591;DHT22;11973;52.098;7.582;2023-06-10T10:12:39;25.20;55.80
23591;DHT22;11973;52.098;7.582;2023-06-10T10:15:07;25.30;55.00
23591;DHT22;11973;52.098;7.582;2023-06-10T10:17:51;25.40;55.00
23591;DHT22;11973;52.098;7.582;2023-06-10T10:20:20;25.40;54.80
23591;DHT22;11973;52.098;7.582;2023-06-10T10:22:49;25.50;54.80
23591;DHT22;11973;52.098;7.582;2023-06-10T10:25:23;25.60;54.70
23591;DHT22;11973;52.098;7.582;2023-06-10T10:28:11;25.60;54.40
23591;DHT22;11973;52.098;7.582;2023-06-10T10:30:42;25.70;54.20
23591;DHT22;11973;52.098;7.582;2023-06-10T10:33:17;25.70;54.00
23591;DHT22;11973;52.098;7.582;2023-06-10T10:35:45;25.80;53.80
23591;DHT22;11973;52.098;7.582;2023-06-10T10:38:11;25.90;53.80
23591;DHT22;11973;52.098;7.582;2023-06-10T10:40:38;25.90;53.70
23591;DHT22;11973;52.098;7.582;2023-06-10T10:43:05;25.90;53.40
23591;DHT22;11973;52.098;7.582;2023-06-10T10:45:33;26.00;53.60
23591;DHT22;11973;52.098;7.582;2023-06-10T10:48:08;26.10;53.10
23591;DHT22;11973;52.098;7.582;2023-06-10T10:50:37;26.10;53.00
23591;DHT22;11973;52.098;7.582;2023-06-10T10:53:05;26.20;52.90
23591;DHT22;11973;52.098;7.582;2023-06-10T10:55:34;26.20;52.60
23591;DHT22;11973;52.098;7.582;2023-06-10T10:58:06;26.30;52.50
23591;DHT22;11973;52.098;7.582;2023-06-10T11:00:34;26.30;52.30
23591;DHT22;11973;52.098;7.582;2023-06-10T11:08:03;26.40;52.30
23591;DHT22;11973;52.098;7.582;2023-06-10T11:10:39;26.50;52.30
23591;DHT22;11973;52.098;7.582;2023-06-10T11:13:15;26.50;52.20
23591;DHT22;11973;52.098;7.582;2023-06-10T11:15:47;26.60;52.10
23591;DHT22;11973;52.098;7.582;2023-06-10T11:18:14;26.60;52.60
23591;DHT22;11973;52.098;7.582;2023-06-10T11:20:45;26.70;51.90
23591;DHT22;11973;52.098;7.582;2023-06-10T11:31:27;27.00;51.40
23591;DHT22;11973;52.098;7.582;2023-06-10T11:33:57;27.00;51.30
23591;DHT22;11973;52.098;7.582;2023-06-10T11:36:24;27.10;51.30
23591;DHT22;11973;52.098;7.582;2023-06-10T11:38:56;27.20;51.20
23591;DHT22;11973;52.098;7.582;2023-06-10T11:41:24;27.20;51.10
23591;DHT22;11973;52.098;7.582;2023-06-10T11:43:51;27.30;50.90
23591;DHT22;11973;52.098;7.582;2023-06-10T11:46:17;27.40;50.80
23591;DHT22;11973;52.098;7.582;2023-06-10T11:48:54;27.50;50.70
23591;DHT22;11973;52.098;7.582;2023-06-10T11:51:20;27.60;50.60
23591;DHT22;11973;52.098;7.582;2023-06-10T11:53:49;27.70;50.50
23591;DHT22;11973;52.098;7.582;2023-06-10T11:56:26;27.70;50.10
23591;DHT22;11973;52.098;7.582;2023-06-10T11:59:03;27.80;49.90
23591;DHT22;11973;52.098;7.582;2023-06-10T12:01:37;27.90;50.00
23591;DHT22;11973;52.098;7.582;2023-06-10T12:04:07;28.00;50.00
23591;DHT22;11973;52.098;7.582;2023-06-10T12:09:13;28.20;49.60
23591;DHT22;11973;52.098;7.582;2023-06-10T12:11:39;28.30;49.40
23591;DHT22;11973;52.098;7.582;2023-06-10T12:14:05;28.30;49.30
23591;DHT22;11973;52.098;7.582;2023-06-10T12:16:31;28.40;49.20
23591;DHT22;11973;52.098;7.582;2023-06-10T12:19:04;28.50;49.10
23591;DHT22;11973;52.098;7.582;2023-06-10T12:21:32;28.60;48.90
23591;DHT22;11973;52.098;7.582;2023-06-10T12:24:02;28.70;48.80
23591;DHT22;11973;52.098;7.582;2023-06-10T12:26:54;28.80;48.50
23591;DHT22;11973;52.098;7.582;2023-06-10T12:29:23;28.90;48.30
23591;DHT22;11973;52.098;7.582;2023-06-10T12:31:54;29.00;48.20
23591;DHT22;11973;52.098;7.582;2023-06-10T12:34:27;29.10;48.10
23591;DHT22;11973;52.098;7.582;2023-06-10T12:36:53;29.20;48.00
23591;DHT22;11973;52.098;7.582;2023-06-10T12:39:19;29.30;47.80
23591;DHT22;11973;52.098;7.582;2023-06-10T12:41:49;29.40;47.60
23591;DHT22;11973;52.098;7.582;2023-06-10T12:44:15;29.50;47.70
23591;DHT22;11973;52.098;7.582;2023-06-10T12:46:41;29.50;47.30
23591;DHT22;11973;52.098;7.582;2023-06-10T12:49:07;29.60;47.80
23591;DHT22;11973;52.098;7.582;2023-06-10T12:51:33;29.70;47.00
23591;DHT22;11973;52.098;7.582;2023-06-10T12:54:00;29.80;46.80
23591;DHT22;11973;52.098;7.582;2023-06-10T12:56:25;29.80;46.60
23591;DHT22;11973;52.098;7.582;2023-06-10T12:58:51;29.90;46.60
23591;DHT22;11973;52.098;7.582;2023-06-10T13:01:17;30.00;46.40
23591;DHT22;11973;52.098;7.582;2023-06-10T13:03:42;30.00;46.30
23591;DHT22;11973;52.098;7.582;2023-06-10T13:06:08;30.10;46.20
23591;DHT22;11973;52.098;7.582;2023-06-10T13:08:34;30.20;46.10
23591;DHT22;11973;52.098;7.582;2023-06-10T13:10:59;30.20;45.80
23591;DHT22;11973;52.098;7.582;2023-06-10T13:13:26;30.30;45.70
23591;DHT22;11973;52.098;7.582;2023-06-10T13:15:52;30.40;45.50
23591;DHT22;11973;52.098;7.582;2023-06-10T13:18:18;30.40;45.30
23591;DHT22;11973;52.098;7.582;2023-06-10T13:20:44;30.50;45.10
23591;DHT22;11973;52.098;7.582;2023-06-10T13:23:10;30.50;45.10
23591;DHT22;11973;52.098;7.582;2023-06-10T13:25:36;30.50;44.80
23591;DHT22;11973;52.098;7.582;2023-06-10T13:28:01;30.60;44.60
23591;DHT22;11973;52.098;7.582;2023-06-10T13:30:28;30.70;44.60
23591;DHT22;11973;52.098;7.582;2023-06-10T13:32:53;30.70;44.40
23591;DHT22;11973;52.098;7.582;2023-06-10T13:35:19;30.80;44.30
23591;DHT22;11973;52.098;7.582;2023-06-10T13:37:45;30.80;44.10
23591;DHT22;11973;52.098;7.582;2023-06-10T13:40:11;30.90;44.00
23591;DHT22;11973;52.098;7.582;2023-06-10T13:42:37;31.00;43.70
23591;DHT22;11973;52.098;7.582;2023-06-10T13:45:04;31.00;43.50
23591;DHT22;11973;52.098;7.582;2023-06-10T13:47:31;31.00;43.30
23591;DHT22;11973;52.098;7.582;2023-06-10T13:49:57;31.10;43.30
23591;DHT22;11973;52.098;7.582;2023-06-10T13:52:23;31.20;43.30
23591;DHT22;11973;52.098;7.582;2023-06-10T13:54:49;31.40;43.30
23591;DHT22;11973;52.098;7.582;2023-06-10T13:57:15;31.70;43.50
23591;DHT22;11973;52.098;7.582;2023-06-10T13:59:41;32.00;43.50
23591;DHT22;11973;52.098;7.582;2023-06-10T14:02:06;32.50;43.40
23591;DHT22;11973;52.098;7.582;2023-06-10T14:04:32;33.10;43.50
23591;DHT22;11973;52.098;7.582;2023-06-10T14:06:58;33.70;43.40
23591;DHT22;11973;52.098;7.582;2023-06-10T14:09:23;34.30;43.00
23591;DHT22;11973;52.098;7.582;2023-06-10T14:11:49;34.80;43.10
23591;DHT22;11973;52.098;7.582;2023-06-10T14:14:15;35.30;42.00
23591;DHT22;11973;52.098;7.582;2023-06-10T14:16:41;35.80;41.40
23591;DHT22;11973;52.098;7.582;2023-06-10T14:19:07;36.30;41.00
23591;DHT22;11973;52.098;7.582;2023-06-10T14:21:32;36.70;40.10
23591;DHT22;11973;52.098;7.582;2023-06-10T14:23:58;37.10;39.60
23591;DHT22;11973;52.098;7.582;2023-06-10T14:26:24;37.50;39.10
23591;DHT22;11973;52.098;7.582;2023-06-10T14:28:51;37.90;38.60
23591;DHT22;11973;52.098;7.582;2023-06-10T14:31:17;38.30;38.00
23591;DHT22;11973;52.098;7.582;2023-06-10T14:33:43;38.70;37.40
23591;DHT22;11973;52.098;7.582;2023-06-10T14:36:10;39.00;37.00
23591;DHT22;11973;52.098;7.582;2023-06-10T14:38:36;39.30;37.00
23591;DHT22;11973;52.098;7.582;2023-06-10T14:41:02;39.50;35.80
23591;DHT22;11973;52.098;7.582;2023-06-10T14:43:28;39.80;35.40
23591;DHT22;11973;52.098;7.582;2023-06-10T14:45:54;40.20;34.90
23591;DHT22;11973;52.098;7.582;2023-06-10T14:48:21;40.40;34.30
23591;DHT22;11973;52.098;7.582;2023-06-10T14:50:47;40.60;33.70
23591;DHT22;11973;52.098;7.582;2023-06-10T14:53:17;40.80;33.20
23591;DHT22;11973;52.098;7.582;2023-06-10T14:55:43;41.00;32.60
23591;DHT22;11973;52.098;7.582;2023-06-10T14:58:08;41.20;32.20
23591;DHT22;11973;52.098;7.582;2023-06-10T15:00:34;41.40;31.80
23591;DHT22;11973;52.098;7.582;2023-06-10T15:03:00;41.60;31.60
23591;DHT22;11973;52.098;7.582;2023-06-10T15:05:26;41.80;31.20
23591;DHT22;11973;52.098;7.582;2023-06-10T15:07:52;42.00;30.80
23591;DHT22;11973;52.098;7.582;2023-06-10T15:10:17;42.30;30.50
23591;DHT22;11973;52.098;7.582;2023-06-10T15:12:43;42.50;30.20
23591;DHT22;11973;52.098;7.582;2023-06-10T15:15:09;42.70;30.00
23591;DHT22;11973;52.098;7.582;2023-06-10T15:17:35;43.10;29.70
23591;DHT22;11973;52.098;7.582;2023-06-10T15:20:01;43.30;29.30
23591;DHT22;11973;52.098;7.582;2023-06-10T15:22:27;43.50;29.10
23591;DHT22;11973;52.098;7.582;2023-06-10T15:24:53;43.80;28.90
23591;DHT22;11973;52.098;7.582;2023-06-10T15:27:20;44.00;28.50
23591;DHT22;11973;52.098;7.582;2023-06-10T15:29:45;44.20;28.70
23591;DHT22;11973;52.098;7.582;2023-06-10T15:32:11;44.30;27.90
23591;DHT22;11973;52.098;7.582;2023-06-10T15:34:37;44.40;27.70
23591;DHT22;11973;52.098;7.582;2023-06-10T15:37:03;44.60;27.40
23591;DHT22;11973;52.098;7.582;2023-06-10T15:39:28;44.70;27.10
23591;DHT22;11973;52.098;7.582;2023-06-10T16:48:09;45.00;23.30
23591;DHT22;11973;52.098;7.582;2023-06-10T16:50:35;43.80;23.40
23591;DHT22;11973;52.098;7.582;2023-06-10T16:53:01;42.70;23.50
23591;DHT22;11973;52.098;7.582;2023-06-10T16:55:26;41.70;23.70
23591;DHT22;11973;52.098;7.582;2023-06-10T16:57:52;40.70;23.90
23591;DHT22;11973;52.098;7.582;2023-06-10T17:00:18;39.90;24.10
23591;DHT22;11973;52.098;7.582;2023-06-10T17:02:44;39.10;24.40
23591;DHT22;11973;52.098;7.582;2023-06-10T17:05:10;38.50;24.70
23591;DHT22;11973;52.098;7.582;2023-06-10T17:07:36;37.70;24.90
23591;DHT22;11973;52.098;7.582;2023-06-10T17:10:02;37.20;25.30
23591;DHT22;11973;52.098;7.582;2023-06-10T17:12:27;36.60;25.60
23591;DHT22;11973;52.098;7.582;2023-06-10T17:14:54;36.10;25.90
23591;DHT22;11973;52.098;7.582;2023-06-10T17:17:20;35.70;26.20
23591;DHT22;11973;52.098;7.582;2023-06-10T17:19:45;35.30;26.60
23591;DHT22;11973;52.098;7.582;2023-06-10T17:22:11;34.90;26.80
23591;DHT22;11973;52.098;7.582;2023-06-10T17:24:37;34.50;27.20
23591;DHT22;11973;52.098;7.582;2023-06-10T17:27:03;34.20;27.50
23591;DHT22;11973;52.098;7.582;2023-06-10T17:29:29;33.90;27.80
23591;DHT22;11973;52.098;7.582;2023-06-10T17:31:57;33.70;28.10
23591;DHT22;11973;52.098;7.582;2023-06-10T17:34:23;33.40;28.50
23591;DHT22;11973;52.098;7.582;2023-06-10T17:36:49;33.20;28.80
23591;DHT22;11973;52.098;7.582;2023-06-10T17:39:14;33.00;29.00
23591;DHT22;11973;52.098;7.582;2023-06-10T17:41:41;32.80;29.30
23591;DHT22;11973;52.098;7.582;2023-06-10T17:44:06;32.60;30.00
23591;DHT22;11973;52.098;7.582;2023-06-10T17:46:32;32.40;29.90
23591;DHT22;11973;52.098;7.582;2023-06-10T17:48:58;32.30;30.00
23591;DHT22;11973;52.098;7.582;2023-06-10T17:51:24;32.20;30.40
23591;DHT22;11973;52.098;7.582;2023-06-10T17:53:50;32.00;30.70
23591;DHT22;11973;52.098;7.582;2023-06-10T17:56:16;31.90;31.00
23591;DHT22;11973;52.098;7.582;2023-06-10T17:58:42;31.80;31.30
23591;DHT22;11973;52.098;7.582;2023-06-10T18:01:08;31.70;31.50
23591;DHT22;11973;52.098;7.582;2023-06-10T18:03:33;31.60;31.90
23591;DHT22;11973;52.098;7.582;2023-06-10T18:06:02;31.50;32.20
23591;DHT22;11973;52.098;7.582;2023-06-10T18:08:28;31.40;32.50
23591;DHT22;11973;52.098;7.582;2023-06-10T18:10:54;31.20;32.70
23591;DHT22;11973;52.098;7.582;2023-06-10T18:13:20;31.20;33.10
23591;DHT22;11973;52.098;7.582;2023-06-10T18:15:45;31.10;33.40
23591;DHT22;11973;52.098;7.582;2023-06-10T18:18:11;31.00;33.60
23591;DHT22;11973;52.098;7.582;2023-06-10T18:20:37;30.90;33.90
23591;DHT22;11973;52.098;7.582;2023-06-10T18:23:03;30.80;34.20
23591;DHT22;11973;52.098;7.582;2023-06-10T18:25:29;30.70;34.40
23591;DHT22;11973;52.098;7.582;2023-06-10T18:27:54;30.70;34.80
23591;DHT22;11973;52.098;7.582;2023-06-10T18:30:20;30.60;35.00
23591;DHT22;11973;52.098;7.582;2023-06-10T18:32:47;30.50;35.30
23591;DHT22;11973;52.098;7.582;2023-06-10T18:35:13;30.40;35.50
23591;DHT22;11973;52.098;7.582;2023-06-10T18:37:39;30.40;35.90
23591;DHT22;11973;52.098;7.582;2023-06-10T18:40:06;30.30;36.20
23591;DHT22;11973;52.098;7.582;2023-06-10T18:42:32;30.20;36.50
23591;DHT22;11973;52.098;7.582;2023-06-10T18:44:58;30.10;36.60
23591;DHT22;11973;52.098;7.582;2023-06-10T18:47:24;30.00;36.90
23591;DHT22;11973;52.098;7.582;2023-06-10T18:49:49;30.00;37.20
23591;DHT22;11973;52.098;7.582;2023-06-10T18:52:15;29.90;37.40
23591;DHT22;11973;52.098;7.582;2023-06-10T18:54:41;29.80;37.70
23591;DHT22;11973;52.098;7.582;2023-06-10T18:57:09;29.70;37.80
23591;DHT22;11973;52.098;7.582;2023-06-10T18:59:36;29.60;38.10
23591;DHT22;11973;52.098;7.582;2023-06-10T19:02:02;29.60;39.00
23591;DHT22;11973;52.098;7.582;2023-06-10T19:04:28;29.50;38.50
23591;DHT22;11973;52.098;7.582;2023-06-10T19:06:54;29.40;38.70
23591;DHT22;11973;52.098;7.582;2023-06-10T19:09:20;29.30;38.90
23591;DHT22;11973;52.098;7.582;2023-06-10T19:11:45;29.30;39.20
23591;DHT22;11973;52.098;7.582;2023-06-10T19:14:11;29.20;39.40
23591;DHT22;11973;52.098;7.582;2023-06-10T19:16:37;29.10;39.60
23591;DHT22;11973;52.098;7.582;2023-06-10T19:19:03;29.10;39.80
23591;DHT22;11973;52.098;7.582;2023-06-10T19:21:29;28.90;40.00
23591;DHT22;11973;52.098;7.582;2023-06-10T19:23:55;28.90;40.20
23591;DHT22;11973;52.098;7.582;2023-06-10T19:26:21;28.80;40.50
23591;DHT22;11973;52.098;7.582;2023-06-10T19:28:46;28.70;40.60
23591;DHT22;11973;52.098;7.582;2023-06-10T19:31:12;28.60;40.80
23591;DHT22;11973;52.098;7.582;2023-06-10T19:33:38;28.60;41.00
23591;DHT22;11973;52.098;7.582;2023-06-10T19:36:04;28.50;41.20
23591;DHT22;11973;52.098;7.582;2023-06-10T19:38:31;28.40;41.40
23591;DHT22;11973;52.098;7.582;2023-06-10T19:40:57;28.30;41.60
23591;DHT22;11973;52.098;7.582;2023-06-10T19:43:22;28.30;41.90
23591;DHT22;11973;52.098;7.582;2023-06-10T19:45:48;28.20;42.10
23591;DHT22;11973;52.098;7.582;2023-06-10T19:48:14;28.10;42.30
23591;DHT22;11973;52.098;7.582;2023-06-10T19:50:40;28.00;42.50
23591;DHT22;11973;52.098;7.582;2023-06-10T19:53:06;28.00;43.40
23591;DHT22;11973;52.098;7.582;2023-06-10T19:55:31;27.90;43.00
23591;DHT22;11973;52.098;7.582;2023-06-10T19:57:57;27.80;43.20
23591;DHT22;11973;52.098;7.582;2023-06-10T20:00:23;27.70;43.30
23591;DHT22;11973;52.098;7.582;2023-06-10T20:02:49;27.60;43.50
23591;DHT22;11973;52.098;7.582;2023-06-10T20:05:15;27.50;43.70
23591;DHT22;11973;52.098;7.582;2023-06-10T20:07:41;27.50;44.00
23591;DHT22;11973;52.098;7.582;2023-06-10T20:10:07;27.40;44.20
23591;DHT22;11973;52.098;7.582;2023-06-10T20:12:33;27.30;44.40
23591;DHT22;11973;52.098;7.582;2023-06-10T20:14:59;27.20;44.50
23591;DHT22;11973;52.098;7.582;2023-06-10T20:17:25;27.10;44.70
23591;DHT22;11973;52.098;7.582;2023-06-10T20:19:52;27.10;45.00
23591;DHT22;11973;52.098;7.582;2023-06-10T20:22:20;27.00;45.20
23591;DHT22;11973;52.098;7.582;2023-06-10T20:24:46;26.90;45.30
23591;DHT22;11973;52.098;7.582;2023-06-10T20:27:13;26.80;45.50
23591;DHT22;11973;52.098;7.582;2023-06-10T20:29:39;26.70;45.70
23591;DHT22;11973;52.098;7.582;2023-06-10T20:32:05;26.70;46.00
23591;DHT22;11973;52.098;7.582;2023-06-10T20:34:31;26.60;46.10
23591;DHT22;11973;52.098;7.582;2023-06-10T20:36:57;26.60;46.30
23591;DHT22;11973;52.098;7.582;2023-06-10T20:39:24;26.50;46.60
23591;DHT22;11973;52.098;7.582;2023-06-10T20:41:50;26.50;46.80
23591;DHT22;11973;52.098;7.582;2023-06-10T20:44:17;26.40;47.00
23591;DHT22;11973;52.098;7.582;2023-06-10T20:46:42;26.30;47.00
23591;DHT22;11973;52.098;7.582;2023-06-10T20:49:09;26.30;47.20
23591;DHT22;11973;52.098;7.582;2023-06-10T20:51:35;26.20;47.30
23591;DHT22;11973;52.098;7.582;2023-06-10T20:54:01;26.20;47.50
23591;DHT22;11973;52.098;7.582;2023-06-10T20:56:27;26.20;47.70
23591;DHT22;11973;52.098;7.582;2023-06-10T20:58:53;26.10;47.80
23591;DHT22;11973;52.098;7.582;2023-06-10T21:01:18;26.10;47.90
23591;DHT22;11973;52.098;7.582;2023-06-10T21:03:44;26.10;48.10
23591;DHT22;11973;52.098;7.582;2023-06-10T21:06:10;26.00;48.10
23591;DHT22;11973;52.098;7.582;2023-06-10T21:08:36;26.00;48.40
23591;DHT22;11973;52.098;7.582;2023-06-10T21:11:02;25.90;48.50
23591;DHT22;11973;52.098;7.582;2023-06-10T21:13:28;25.90;49.20
23591;DHT22;11973;52.098;7.582;2023-06-10T21:15:54;25.80;48.70
23591;DHT22;11973;52.098;7.582;2023-06-10T21:18:19;25.80;48.90
23591;DHT22;11973;52.098;7.582;2023-06-10T21:20:45;25.80;49.70
23591;DHT22;11973;52.098;7.582;2023-06-10T21:23:11;25.70;49.10
23591;DHT22;11973;52.098;7.582;2023-06-10T21:25:37;25.70;49.30
23591;DHT22;11973;52.098;7.582;2023-06-10T21:28:03;25.60;49.30
23591;DHT22;11973;52.098;7.582;2023-06-10T21:30:29;25.60;49.50
23591;DHT22;11973;52.098;7.582;2023-06-10T21:32:55;25.50;49.60
23591;DHT22;11973;52.098;7.582;2023-06-10T21:35:21;25.50;49.70
23591;DHT22;11973;52.098;7.582;2023-06-10T21:37:48;25.40;49.90
23591;DHT22;11973;52.098;7.582;2023-06-10T21:40:15;25.30;50.00
23591;DHT22;11973;52.098;7.582;2023-06-10T21:42:41;25.30;50.10
23591;DHT22;11973;52.098;7.582;2023-06-10T21:45:07;25.20;50.30
